KMVL/MVL METAR and TAF weather

Enter ICAO airport designator
Station Type Date Time Source
KMVL METAR 2019/06/26 05:31 UTC NOAA

KMVL 260531Z AUTO 18004KT 10SM OVC005 18/17 A2994 RMK AO2 T01780167 $


Station Type Date Time Source
KMVL Decoded METAR 2019/06/26 05:31 UTC NOAA

MORRISVILLE STOWE STATE AIRPORT , VT, United States (KMVL) 44-32N 72-37W 223M
Jun 26, 2019 - 01:31 AM EDT / 2019.06.26 0531 UTC
Wind: from the S (180 degrees) at 5 MPH (4 KT):0
Visibility: 10 mile(s):0
Sky conditions: overcast
Temperature: 64.0 F (17.8 C)
Dew Point: 62.1 F (16.7 C)
Relative Humidity: 93%
Pressure (altimeter): 29.94 in. Hg (1013 hPa)
ob: KMVL 260531Z AUTO 18004KT 10SM OVC005 18/17 A2994 RMK AO2 T01780167
cycle: 5

Station Type Date Time Source
KMVL TAF UTC NOAA

Error!

Example: see airport list